createdAt,value
2022-09-10T00:01:10.614Z,18.59
2022-09-10T00:04:02.527Z,18.68
2022-09-10T00:06:48.109Z,18.79
2022-09-10T00:09:26.260Z,18.94
2022-09-10T00:12:06.156Z,19.06
2022-09-10T00:14:50.491Z,18.88
2022-09-10T00:17:29.843Z,19.39
2022-09-10T00:23:16.107Z,19.69
2022-09-10T00:25:57.574Z,19.77
2022-09-10T00:28:42.195Z,19.88
2022-09-10T00:31:28.681Z,19.99
2022-09-10T00:34:29.357Z,20.02
2022-09-10T00:37:13.367Z,20.10
2022-09-10T00:39:50.933Z,20.22
2022-09-10T00:42:43.005Z,20.30
2022-09-10T00:45:32.067Z,20.35
2022-09-10T00:48:15.179Z,20.44
2022-09-10T00:50:55.687Z,20.26
2022-09-10T00:54:09.139Z,20.78
2022-09-10T00:56:49.740Z,20.79
2022-09-10T00:59:34.203Z,20.78
2022-09-10T01:02:23.110Z,20.90
2022-09-10T01:05:15.272Z,21.00
2022-09-10T01:08:00.970Z,21.07
2022-09-10T01:10:52.554Z,21.04
2022-09-10T01:14:02.327Z,21.09
2022-09-10T01:16:50.838Z,21.13
2022-09-10T01:19:44.990Z,21.15
2022-09-10T01:22:41.794Z,21.22
2022-09-10T01:25:27.445Z,21.26
2022-09-10T01:28:15.635Z,21.28
2022-09-10T01:30:56.739Z,21.40
2022-09-10T01:33:47.983Z,21.38
2022-09-10T01:36:31.266Z,21.46
2022-09-10T01:39:24.085Z,21.58
2022-09-10T01:42:05.288Z,21.71
2022-09-10T01:45:17.741Z,21.81
2022-09-10T01:48:10.089Z,21.89
2022-09-10T01:50:57.350Z,21.92
2022-09-10T01:54:01.820Z,22.02
2022-09-10T01:56:50.322Z,22.12
2022-09-10T01:59:43.427Z,22.23
2022-09-10T02:02:52.014Z,22.20
2022-09-10T02:05:37.809Z,22.21
2022-09-10T02:08:29.764Z,22.29
2022-09-10T02:11:11.796Z,22.32
2022-09-10T02:13:51.385Z,22.25
2022-09-10T02:16:35.147Z,22.23
2022-09-10T02:19:31.190Z,22.36
2022-09-10T02:22:09.083Z,22.48
2022-09-10T02:24:46.330Z,22.48
2022-09-10T02:27:33.009Z,22.41
2022-09-10T02:30:18.615Z,22.07
2022-09-10T02:32:57.501Z,22.63
2022-09-10T02:35:49.913Z,22.72
2022-09-10T02:38:30.036Z,22.77
2022-09-10T02:41:08.401Z,22.68
2022-09-10T02:43:48.252Z,22.87
2022-09-10T02:46:39.481Z,22.90
2022-09-10T02:49:33.279Z,22.97
2022-09-10T02:52:14.003Z,22.98
2022-09-10T02:54:55.172Z,22.98
2022-09-10T02:57:37.575Z,22.99
2022-09-10T03:00:16.794Z,23.00
2022-09-10T03:02:56.864Z,23.05
2022-09-10T03:05:41.019Z,23.13
2022-09-10T03:08:51.596Z,23.19
2022-09-10T03:11:29.474Z,23.25
2022-09-10T03:14:08.283Z,23.22
2022-09-10T03:19:54.862Z,23.31
2022-09-10T03:22:37.446Z,23.20
2022-09-10T03:25:22.116Z,23.22
2022-09-10T03:28:21.936Z,23.32
2022-09-10T03:31:11.987Z,23.38
2022-09-10T03:33:57.066Z,23.37
2022-09-10T03:36:40.568Z,23.38
2022-09-10T03:39:31.693Z,23.28
2022-09-10T03:42:19.373Z,23.27
2022-09-10T03:45:12.297Z,23.30
2022-09-10T03:47:50.326Z,23.31
2022-09-10T03:50:41.241Z,23.36
2022-09-10T03:53:26.272Z,23.29
2022-09-10T03:56:19.679Z,23.40
2022-09-10T03:59:02.466Z,23.42
2022-09-10T04:01:42.336Z,23.38
2022-09-10T04:04:22.284Z,23.43
2022-09-10T04:07:01.421Z,23.43
2022-09-10T04:09:46.237Z,23.36
2022-09-10T04:12:26.178Z,23.38
2022-09-10T04:15:20.903Z,23.41
2022-09-10T04:21:24.596Z,23.43
2022-09-10T04:24:03.998Z,23.43
2022-09-10T04:26:44.360Z,23.43
2022-09-10T04:29:26.592Z,23.38
2022-09-10T04:32:20.115Z,23.31
2022-09-10T04:35:07.070Z,23.21
2022-09-10T04:37:50.734Z,23.14
2022-09-10T04:40:31.995Z,23.17
2022-09-10T04:43:10.905Z,23.07
2022-09-10T04:45:56.781Z,22.98
2022-09-10T04:48:45.981Z,22.91
2022-09-10T04:51:24.580Z,22.81
2022-09-10T04:54:15.658Z,22.80
2022-09-10T04:56:57.938Z,22.77
2022-09-10T04:59:40.934Z,22.79
2022-09-10T05:02:30.301Z,22.82
2022-09-10T05:05:43.381Z,22.82
2022-09-10T05:08:28.589Z,22.83
2022-09-10T05:11:11.535Z,22.70
2022-09-10T05:14:03.770Z,22.72
2022-09-10T05:16:45.325Z,22.65
2022-09-10T05:19:29.218Z,22.63
2022-09-10T05:22:15.009Z,22.58
2022-09-10T05:24:55.950Z,22.52
2022-09-10T05:27:38.701Z,22.47
2022-09-10T05:30:23.277Z,22.45
2022-09-10T05:32:58.248Z,22.39
2022-09-10T05:38:46.446Z,22.32
2022-09-10T05:41:24.502Z,22.26
2022-09-10T05:44:06.229Z,22.23
2022-09-10T05:46:50.352Z,22.14
2022-09-10T05:52:38.428Z,22.11
2022-09-10T05:55:33.152Z,22.08
2022-09-10T05:58:13.060Z,22.03
2022-09-10T06:04:16.489Z,21.84
2022-09-10T06:07:14.621Z,21.75
2022-09-10T06:10:02.179Z,21.72
2022-09-10T06:12:41.752Z,21.69
2022-09-10T06:15:21.597Z,21.66
2022-09-10T06:18:04.658Z,21.46
2022-09-10T06:20:45.412Z,21.44
2022-09-10T06:23:29.889Z,21.40
2022-09-10T06:26:16.878Z,21.35
2022-09-10T06:29:03.991Z,21.27
2022-09-10T06:31:53.793Z,21.26
2022-09-10T06:34:32.870Z,21.24
2022-09-10T06:37:16.081Z,21.15
2022-09-10T06:39:55.601Z,21.09
2022-09-10T06:42:37.292Z,21.04
2022-09-10T06:45:14.076Z,20.95
2022-09-10T06:51:13.221Z,20.80
2022-09-10T06:54:02.930Z,20.59
2022-09-10T06:56:52.515Z,20.79
2022-09-10T06:59:31.904Z,20.76
2022-09-10T07:02:22.290Z,20.67
2022-09-10T07:05:00.076Z,20.63
2022-09-10T07:07:38.673Z,20.61
2022-09-10T07:10:24.686Z,20.53
2022-09-10T07:13:11.590Z,20.46
2022-09-10T07:15:58.470Z,20.09
2022-09-10T07:18:34.318Z,20.31
2022-09-10T07:21:15.983Z,20.28
2022-09-10T07:23:52.088Z,19.99
2022-09-10T07:26:32.403Z,20.25
2022-09-10T07:29:19.844Z,20.26
2022-09-10T07:32:05.752Z,20.19
2022-09-10T07:34:48.284Z,20.13
2022-09-10T07:37:27.701Z,19.90
2022-09-10T07:40:05.800Z,20.04
2022-09-10T07:42:45.896Z,19.94
2022-09-10T07:45:41.700Z,19.85
2022-09-10T07:48:23.360Z,19.60
2022-09-10T07:51:11.643Z,19.69
2022-09-10T07:53:55.646Z,19.62
2022-09-10T07:56:54.304Z,19.56
2022-09-10T07:59:41.462Z,19.52
2022-09-10T08:02:24.759Z,19.47
2022-09-10T08:05:13.814Z,19.40
2022-09-10T08:07:59.589Z,19.34
2022-09-10T08:10:36.932Z,19.26
2022-09-10T08:13:24.078Z,19.17
2022-09-10T08:16:27.695Z,19.13
2022-09-10T08:19:30.727Z,19.02
2022-09-10T08:22:13.304Z,18.91
2022-09-10T08:25:10.294Z,18.81
2022-09-10T08:27:56.326Z,18.68
2022-09-10T08:30:36.092Z,18.58
2022-09-10T08:33:20.445Z,18.46
2022-09-10T08:36:16.939Z,18.39
2022-09-10T08:38:56.974Z,18.27
2022-09-10T08:45:00.306Z,17.81
2022-09-10T08:47:49.817Z,17.90
2022-09-10T08:50:39.139Z,17.63
2022-09-10T08:53:30.172Z,17.47
2022-09-10T08:56:17.340Z,17.09
2022-09-10T08:59:17.021Z,17.01
2022-09-10T09:01:57.294Z,16.42
2022-09-10T09:04:43.068Z,16.79
2022-09-10T09:07:22.965Z,16.68
2022-09-10T09:09:57.942Z,16.51
2022-09-10T09:19:19.160Z,15.74
2022-09-10T09:22:10.069Z,15.36
2022-09-10T09:25:22.751Z,15.07
2022-09-10T09:28:07.610Z,14.66
2022-09-10T09:30:55.075Z,14.81
2022-09-10T09:33:43.751Z,14.72
2022-09-10T09:36:40.341Z,14.65
2022-09-10T09:39:25.761Z,14.55
2022-09-10T09:42:36.045Z,14.46
2022-09-10T09:48:38.176Z,14.34
2022-09-10T09:51:38.385Z,14.29
2022-09-10T09:55:13.036Z,14.14
2022-09-10T09:57:41.053Z,14.02
2022-09-10T10:00:52.942Z,13.92
2022-09-10T10:03:40.054Z,13.86
2022-09-10T10:06:40.263Z,13.72
2022-09-10T10:09:50.889Z,13.67
2022-09-10T10:12:35.332Z,13.59
2022-09-10T10:15:49.416Z,13.53
2022-09-10T10:18:59.848Z,13.45
2022-09-10T10:21:37.729Z,13.10
2022-09-10T10:24:35.273Z,13.25
2022-09-10T10:27:23.988Z,13.15
2022-09-10T10:33:05.568Z,13.07
2022-09-10T10:36:04.674Z,13.10
2022-09-10T10:38:45.095Z,12.66
2022-09-10T10:41:57.493Z,13.13
2022-09-10T10:45:13.404Z,13.21
2022-09-10T10:48:02.295Z,13.12
2022-09-10T10:50:54.591Z,13.25
2022-09-10T10:54:09.972Z,13.17
2022-09-10T10:57:05.056Z,13.22
2022-09-10T11:00:07.257Z,13.18
2022-09-10T11:02:50.764Z,13.22
2022-09-10T11:05:35.591Z,13.19
2022-09-10T11:08:31.689Z,13.14
2022-09-10T11:11:16.827Z,13.08
2022-09-10T11:14:10.398Z,13.06
2022-09-10T11:17:07.435Z,13.05
2022-09-10T11:20:17.503Z,13.18
2022-09-10T11:23:13.302Z,13.22
2022-09-10T11:26:06.572Z,13.27
2022-09-10T11:28:53.227Z,12.76
2022-09-10T11:31:34.289Z,13.16
2022-09-10T11:34:26.305Z,13.10
2022-09-10T11:37:06.905Z,13.03
2022-09-10T11:39:58.823Z,12.89
2022-09-10T11:42:56.856Z,12.88
2022-09-10T11:45:40.977Z,12.77
2022-09-10T11:48:39.256Z,12.66
2022-09-10T11:51:22.497Z,12.58
2022-09-10T11:54:00.153Z,12.63
2022-09-10T11:57:23.688Z,12.57
2022-09-10T12:00:24.585Z,12.13
2022-09-10T12:03:25.965Z,12.51
2022-09-10T12:06:15.338Z,12.50
2022-09-10T12:09:09.295Z,12.49
2022-09-10T12:12:05.861Z,12.45
2022-09-10T12:14:48.638Z,12.42
2022-09-10T12:17:35.001Z,12.39
2022-09-10T12:20:28.790Z,12.34
2022-09-10T12:23:14.028Z,12.29
2022-09-10T12:26:06.910Z,12.24
2022-09-10T12:32:41.699Z,11.87
2022-09-10T12:36:01.268Z,11.81
2022-09-10T12:39:53.730Z,11.82
2022-09-10T12:43:06.663Z,11.76
2022-09-10T12:46:16.663Z,11.70
2022-09-10T12:52:29.983Z,11.59
2022-09-10T12:55:37.839Z,11.51
2022-09-10T12:58:40.074Z,11.51
2022-09-10T13:01:31.331Z,11.48
2022-09-10T13:04:35.018Z,11.56
2022-09-10T13:07:29.854Z,11.49
2022-09-10T13:10:19.694Z,11.45
2022-09-10T13:14:08.067Z,11.33
2022-09-10T13:16:58.695Z,11.23
2022-09-10T13:19:56.426Z,11.12
2022-09-10T13:23:09.771Z,11.00
2022-09-10T13:25:57.309Z,10.87
2022-09-10T13:29:18.089Z,10.95
2022-09-10T13:32:04.212Z,11.07
2022-09-10T13:35:29.549Z,11.12
2022-09-10T13:38:36.018Z,11.08
2022-09-10T13:42:17.750Z,11.15
2022-09-10T13:45:25.793Z,11.15
2022-09-10T13:48:18.227Z,11.01
2022-09-10T13:51:27.696Z,10.85
2022-09-10T13:54:29.916Z,10.73
2022-09-10T13:57:16.968Z,10.61
2022-09-10T14:00:00.945Z,10.62
2022-09-10T14:02:57.256Z,10.67
2022-09-10T14:05:51.847Z,10.64
2022-09-10T14:08:43.550Z,10.51
2022-09-10T14:11:25.777Z,10.50
2022-09-10T14:14:06.754Z,10.60
2022-09-10T14:16:53.493Z,10.57
2022-09-10T14:19:40.310Z,10.36
2022-09-10T14:22:22.869Z,10.60
2022-09-10T14:25:08.555Z,10.49
2022-09-10T14:27:46.848Z,10.56
2022-09-10T14:30:33.967Z,10.49
2022-09-10T14:33:37.126Z,10.44
2022-09-10T14:36:31.416Z,10.42
2022-09-10T14:42:31.849Z,10.55
2022-09-10T14:45:26.120Z,10.49
2022-09-10T14:48:01.507Z,10.51
2022-09-10T14:50:52.569Z,10.57
2022-09-10T14:53:40.659Z,10.36
2022-09-10T14:56:37.330Z,10.55
2022-09-10T14:59:21.973Z,10.61
2022-09-10T15:02:25.493Z,10.72
2022-09-10T15:05:06.270Z,10.68
2022-09-10T15:07:47.077Z,10.62
2022-09-10T15:10:32.550Z,10.82
2022-09-10T15:13:08.264Z,10.84
2022-09-10T15:15:49.500Z,10.88
2022-09-10T15:18:30.106Z,10.87
2022-09-10T15:21:20.904Z,10.87
2022-09-10T15:24:07.309Z,10.64
2022-09-10T15:26:51.359Z,10.71
2022-09-10T15:29:31.263Z,10.71
2022-09-10T15:32:08.176Z,10.70
2022-09-10T15:35:01.494Z,10.75
2022-09-10T15:37:48.909Z,10.79
2022-09-10T15:40:36.360Z,10.85
2022-09-10T15:43:17.367Z,10.88
2022-09-10T15:46:05.049Z,10.93
2022-09-10T15:48:50.885Z,11.06
2022-09-10T15:51:37.796Z,11.15
2022-09-10T15:54:21.890Z,11.10
2022-09-10T15:57:09.598Z,10.92
2022-09-10T16:00:05.441Z,10.67
2022-09-10T16:02:44.302Z,10.95
2022-09-10T16:05:57.921Z,10.91
2022-09-10T16:08:43.130Z,10.91
2022-09-10T16:11:26.346Z,10.95
2022-09-10T16:14:08.360Z,10.55
2022-09-10T16:16:46.877Z,10.95
2022-09-10T16:22:21.756Z,10.78
2022-09-10T16:25:05.685Z,10.70
2022-09-10T16:27:50.929Z,10.70
2022-09-10T16:31:30.457Z,10.66
2022-09-10T16:34:14.751Z,10.64
2022-09-10T16:36:52.391Z,10.60
2022-09-10T16:39:47.798Z,10.62
2022-09-10T16:42:26.362Z,10.70
2022-09-10T16:45:08.104Z,10.77
2022-09-10T16:47:59.742Z,10.83
2022-09-10T16:50:47.350Z,10.89
2022-09-10T16:53:24.452Z,10.64
2022-09-10T16:56:17.513Z,10.77
2022-09-10T16:58:58.049Z,10.71
2022-09-10T17:02:03.935Z,10.65
2022-09-10T17:05:01.387Z,10.59
2022-09-10T17:08:00.974Z,10.57
2022-09-10T17:14:42.124Z,10.49
2022-09-10T17:17:26.205Z,10.46
2022-09-10T17:20:07.404Z,10.47
2022-09-10T17:22:47.089Z,10.43
2022-09-10T17:25:24.105Z,10.39
2022-09-10T17:28:05.519Z,10.28
2022-09-10T17:30:53.478Z,10.27
2022-09-10T17:33:39.907Z,10.29
2022-09-10T17:36:26.045Z,10.23
2022-09-10T17:39:04.843Z,10.01
2022-09-10T17:41:54.327Z,10.15
2022-09-10T17:44:33.438Z,10.20
2022-09-10T17:50:09.470Z,10.15
2022-09-10T17:52:52.804Z,10.07
2022-09-10T17:58:22.650Z,10.00
2022-09-10T18:01:05.142Z,10.03
2022-09-10T18:03:41.376Z,10.02
2022-09-10T18:06:27.497Z,9.80
2022-09-10T18:09:23.103Z,9.98
2022-09-10T18:12:26.880Z,9.94
2022-09-10T18:15:06.048Z,9.88
2022-09-10T18:17:57.972Z,9.94
2022-09-10T18:20:37.752Z,10.01
2022-09-10T18:23:24.182Z,10.07
2022-09-10T18:26:18.122Z,10.14
2022-09-10T18:29:07.214Z,9.96
2022-09-10T18:32:03.905Z,10.14
2022-09-10T18:34:53.490Z,10.25
2022-09-10T18:37:38.095Z,10.24
2022-09-10T18:40:22.098Z,10.25
2022-09-10T18:43:04.463Z,10.13
2022-09-10T18:45:49.752Z,9.90
2022-09-10T18:48:41.322Z,10.17
2022-09-10T18:51:23.416Z,10.09
2022-09-10T18:54:05.811Z,10.10
2022-09-10T18:56:47.881Z,10.09
2022-09-10T18:59:40.651Z,9.98
2022-09-10T19:02:18.783Z,9.89
2022-09-10T19:05:11.393Z,9.85
2022-09-10T19:07:54.142Z,9.75
2022-09-10T19:10:35.613Z,9.76
2022-09-10T19:13:23.332Z,9.74
2022-09-10T19:16:20.876Z,9.52
2022-09-10T19:18:58.457Z,9.72
2022-09-10T19:21:37.611Z,9.46
2022-09-10T19:24:19.351Z,9.69
2022-09-10T19:27:12.983Z,9.68
2022-09-10T19:30:14.417Z,9.71
2022-09-10T19:33:12.026Z,9.78
2022-09-10T19:35:52.467Z,9.76
2022-09-10T19:38:40.726Z,9.74
2022-09-10T19:41:27.233Z,9.74
2022-09-10T19:44:05.708Z,9.64
2022-09-10T19:46:42.378Z,9.60
2022-09-10T19:49:21.845Z,9.54
2022-09-10T19:51:59.957Z,9.52
2022-09-10T19:54:39.287Z,9.58
2022-09-10T19:57:33.993Z,9.52
2022-09-10T20:00:20.636Z,9.49
2022-09-10T20:03:20.811Z,9.30
2022-09-10T20:06:02.893Z,9.28
2022-09-10T20:08:39.778Z,9.24
2022-09-10T20:11:32.489Z,9.15
2022-09-10T20:14:24.807Z,8.90
2022-09-10T20:17:11.371Z,9.02
2022-09-10T20:19:56.417Z,8.93
2022-09-10T20:22:38.750Z,8.94
2022-09-10T20:25:26.852Z,8.93
2022-09-10T20:28:25.329Z,8.96
2022-09-10T20:31:07.251Z,9.04
2022-09-10T20:33:50.528Z,9.17
2022-09-10T20:36:48.674Z,9.23
2022-09-10T20:39:32.868Z,9.29
2022-09-10T20:42:43.948Z,9.32
2022-09-10T20:45:31.022Z,9.54
2022-09-10T20:48:18.727Z,9.62
2022-09-10T20:51:05.572Z,9.54
2022-09-10T20:53:50.707Z,9.76
2022-09-10T20:57:00.287Z,9.91
2022-09-10T20:59:35.207Z,10.00
2022-09-10T21:02:21.657Z,10.09
2022-09-10T21:05:06.669Z,10.13
2022-09-10T21:07:41.573Z,10.34
2022-09-10T21:10:19.661Z,10.49
2022-09-10T21:13:05.961Z,10.56
2022-09-10T21:15:49.253Z,10.71
2022-09-10T21:18:26.686Z,10.90
2022-09-10T21:21:21.465Z,10.93
2022-09-10T21:24:04.291Z,11.11
2022-09-10T21:26:50.863Z,11.23
2022-09-10T21:29:28.953Z,11.34
2022-09-10T21:32:12.529Z,11.48
2022-09-10T21:34:52.007Z,11.62
2022-09-10T21:37:37.273Z,11.10
2022-09-10T21:40:26.256Z,11.91
2022-09-10T21:43:05.105Z,12.00
2022-09-10T21:46:04.812Z,12.14
2022-09-10T21:48:46.788Z,12.08
2022-09-10T21:51:25.366Z,12.44
2022-09-10T21:54:07.583Z,12.59
2022-09-10T21:56:48.822Z,12.75
2022-09-10T21:59:34.451Z,12.85
2022-09-10T22:02:31.335Z,12.99
2022-09-10T22:05:26.252Z,13.07
2022-09-10T22:08:01.519Z,13.25
2022-09-10T22:10:44.694Z,13.40
2022-09-10T22:13:45.942Z,13.58
2022-09-10T22:16:36.355Z,13.73
2022-09-10T22:19:50.986Z,13.92
2022-09-10T22:22:35.615Z,13.98
2022-09-10T22:25:20.482Z,14.07
2022-09-10T22:27:59.583Z,14.22
2022-09-10T22:30:41.796Z,14.35
2022-09-10T22:33:36.779Z,14.49
2022-09-10T22:36:38.457Z,14.70
2022-09-10T22:39:31.329Z,14.73
2022-09-10T22:42:09.770Z,14.98
2022-09-10T22:44:55.135Z,15.13
2022-09-10T22:47:34.714Z,15.24
2022-09-10T22:50:10.814Z,15.38
2022-09-10T22:53:04.786Z,15.54
2022-09-10T22:55:45.378Z,15.74
2022-09-10T22:58:22.187Z,15.92
2022-09-10T23:01:00.217Z,16.11
2022-09-10T23:03:38.322Z,16.26
2022-09-10T23:06:31.637Z,16.38
2022-09-10T23:09:11.169Z,16.46
2022-09-10T23:11:57.502Z,16.67
2022-09-10T23:14:55.110Z,16.89
2022-09-10T23:17:33.177Z,17.10
2022-09-10T23:20:26.572Z,17.31
2022-09-10T23:23:04.970Z,17.38
2022-09-10T23:26:00.183Z,17.76
2022-09-10T23:28:44.222Z,17.86
2022-09-10T23:31:23.165Z,17.97
2022-09-10T23:34:01.759Z,17.98
2022-09-10T23:36:42.701Z,18.25
2022-09-10T23:39:41.203Z,18.36
2022-09-10T23:42:36.225Z,18.51
2022-09-10T23:45:17.605Z,18.44
2022-09-10T23:48:12.267Z,18.90
2022-09-10T23:51:11.435Z,19.15
2022-09-10T23:53:51.539Z,19.33
2022-09-10T23:56:28.279Z,19.47
2022-09-10T23:59:13.250Z,19.54
